createdAt,value
2022-08-30T00:01:22.408Z,20.60
2022-08-30T00:03:49.312Z,20.60
2022-08-30T00:06:17.842Z,20.50
2022-08-30T00:08:45.168Z,20.50
2022-08-30T00:11:14.349Z,20.50
2022-08-30T00:13:43.271Z,20.50
2022-08-30T00:16:11.089Z,20.50
2022-08-30T00:18:38.567Z,20.50
2022-08-30T00:21:06.211Z,20.40
2022-08-30T00:23:33.125Z,20.40
2022-08-30T00:26:00.404Z,20.40
2022-08-30T00:28:27.148Z,20.40
2022-08-30T00:30:54.479Z,20.40
2022-08-30T00:33:21.900Z,20.40
2022-08-30T00:35:49.253Z,20.30
2022-08-30T00:38:16.845Z,20.40
2022-08-30T00:40:44.799Z,20.30
2022-08-30T00:43:20.146Z,20.30
2022-08-30T00:45:47.407Z,20.20
2022-08-30T00:48:14.295Z,20.20
2022-08-30T00:50:54.041Z,20.20
2022-08-30T00:53:33.838Z,20.10
2022-08-30T00:56:01.469Z,20.10
2022-08-30T00:58:38.373Z,20.10
2022-08-30T01:01:06.834Z,20.00
2022-08-30T01:03:34.870Z,20.00
2022-08-30T01:06:03.237Z,20.00
2022-08-30T01:08:29.939Z,19.90
2022-08-30T01:10:57.633Z,19.90
2022-08-30T01:13:26.557Z,19.90
2022-08-30T01:15:54.364Z,19.90
2022-08-30T01:18:23.883Z,19.80
2022-08-30T01:21:28.935Z,19.80
2022-08-30T01:23:58.931Z,19.80
2022-08-30T01:26:28.942Z,19.80
2022-08-30T01:29:00.307Z,19.70
2022-08-30T01:31:28.209Z,19.70
2022-08-30T01:33:54.954Z,19.70
2022-08-30T01:36:22.009Z,19.60
2022-08-30T01:38:50.670Z,19.60
2022-08-30T01:41:35.166Z,19.60
2022-08-30T01:44:06.178Z,19.50
2022-08-30T01:46:36.055Z,19.50
2022-08-30T01:49:06.386Z,19.50
2022-08-30T01:51:33.296Z,19.50
2022-08-30T01:54:00.500Z,19.50
2022-08-30T01:56:29.142Z,19.50
2022-08-30T01:59:01.835Z,19.40
2022-08-30T02:01:32.440Z,19.40
2022-08-30T02:03:59.511Z,19.40
2022-08-30T02:06:26.641Z,19.40
2022-08-30T02:08:53.366Z,19.40
2022-08-30T02:11:20.093Z,19.40
2022-08-30T02:13:47.356Z,19.40
2022-08-30T02:16:17.335Z,19.30
2022-08-30T02:18:44.762Z,19.30
2022-08-30T02:21:12.798Z,19.30
2022-08-30T02:23:39.469Z,19.30
2022-08-30T02:26:07.459Z,19.20
2022-08-30T02:28:34.537Z,19.20
2022-08-30T02:31:10.508Z,19.20
2022-08-30T02:33:38.041Z,19.10
2022-08-30T02:36:08.327Z,19.10
2022-08-30T02:38:35.521Z,19.10
2022-08-30T02:41:02.453Z,19.10
2022-08-30T02:43:29.209Z,19.10
2022-08-30T02:45:56.070Z,19.00
2022-08-30T02:48:22.965Z,19.00
2022-08-30T02:50:52.017Z,19.00
2022-08-30T02:53:21.044Z,19.00
2022-08-30T02:55:48.702Z,18.90
2022-08-30T02:58:15.432Z,18.90
2022-08-30T03:00:42.854Z,18.90
2022-08-30T03:03:09.912Z,18.90
2022-08-30T03:05:39.584Z,18.80
2022-08-30T03:08:07.430Z,18.80
2022-08-30T03:10:34.541Z,18.80
2022-08-30T03:13:01.442Z,18.70
2022-08-30T03:15:28.142Z,18.80
2022-08-30T03:17:55.662Z,18.70
2022-08-30T03:20:24.034Z,18.70
2022-08-30T03:22:51.041Z,18.70
2022-08-30T03:25:20.497Z,18.60
2022-08-30T03:27:47.976Z,18.70
2022-08-30T03:30:14.973Z,18.60
2022-08-30T03:32:41.864Z,18.60
2022-08-30T03:35:10.168Z,18.60
2022-08-30T03:37:37.336Z,18.60
2022-08-30T03:40:09.322Z,18.50
2022-08-30T03:42:37.861Z,18.50
2022-08-30T03:45:07.733Z,18.50
2022-08-30T03:47:34.766Z,18.40
2022-08-30T03:50:01.491Z,18.50
2022-08-30T03:52:28.521Z,18.50
2022-08-30T03:54:55.211Z,18.40
2022-08-30T03:57:24.495Z,18.40
2022-08-30T03:59:51.670Z,18.40
2022-08-30T04:02:18.533Z,18.40
2022-08-30T04:04:45.263Z,18.30
2022-08-30T04:07:11.967Z,18.30
2022-08-30T04:09:38.687Z,18.30
2022-08-30T04:12:05.631Z,18.30
2022-08-30T04:14:32.273Z,18.30
2022-08-30T04:16:59.717Z,18.30
2022-08-30T04:19:26.394Z,18.30
2022-08-30T04:21:53.114Z,18.30
2022-08-30T04:24:19.821Z,18.20
2022-08-30T04:26:46.455Z,18.20
2022-08-30T04:29:16.548Z,18.20
2022-08-30T04:31:44.400Z,18.20
2022-08-30T04:34:12.872Z,18.20
2022-08-30T04:36:40.271Z,18.20
2022-08-30T04:39:07.564Z,18.30
2022-08-30T04:41:36.566Z,18.20
2022-08-30T04:44:03.622Z,18.10
2022-08-30T04:46:30.846Z,18.10
2022-08-30T04:48:57.721Z,18.10
2022-08-30T04:51:24.424Z,18.00
2022-08-30T04:53:51.207Z,18.00
2022-08-30T04:56:22.300Z,18.00
2022-08-30T04:58:50.799Z,18.00
2022-08-30T05:01:26.351Z,18.00
2022-08-30T05:03:54.617Z,18.00
2022-08-30T05:06:23.290Z,18.00
2022-08-30T05:08:50.064Z,18.00
2022-08-30T05:11:17.577Z,17.90
2022-08-30T05:13:44.859Z,17.90
2022-08-30T05:16:17.516Z,17.90
2022-08-30T05:18:49.054Z,17.90
2022-08-30T05:21:26.733Z,17.90
2022-08-30T05:23:55.958Z,17.90
2022-08-30T05:26:26.398Z,17.90
2022-08-30T05:28:53.363Z,17.90
2022-08-30T05:31:23.156Z,17.90
2022-08-30T05:33:51.989Z,17.90
2022-08-30T05:36:20.666Z,17.90
2022-08-30T05:38:47.754Z,17.90
2022-08-30T05:41:14.832Z,17.90
2022-08-30T05:43:42.288Z,17.90
2022-08-30T05:46:12.814Z,17.90
2022-08-30T05:48:40.458Z,17.90
2022-08-30T05:51:14.772Z,17.90
2022-08-30T05:53:41.761Z,18.00
2022-08-30T05:56:11.483Z,18.00
2022-08-30T05:58:38.621Z,18.00
2022-08-30T06:01:06.340Z,18.00
2022-08-30T06:03:33.504Z,18.10
2022-08-30T06:06:00.856Z,18.10
2022-08-30T06:08:27.789Z,18.10
2022-08-30T06:10:54.553Z,18.20
2022-08-30T06:13:22.216Z,18.20
2022-08-30T06:15:49.525Z,18.20
2022-08-30T06:18:16.431Z,18.30
2022-08-30T06:20:44.528Z,18.30
2022-08-30T06:23:11.182Z,18.40
2022-08-30T06:25:41.410Z,18.40
2022-08-30T06:28:10.007Z,18.50
2022-08-30T06:30:39.037Z,18.60
2022-08-30T06:33:05.981Z,18.60
2022-08-30T06:35:38.108Z,18.70
2022-08-30T06:38:09.024Z,18.80
2022-08-30T06:40:36.753Z,18.80
2022-08-30T06:43:03.631Z,18.90
2022-08-30T06:45:31.028Z,19.10
2022-08-30T06:50:31.826Z,19.30
2022-08-30T06:53:04.423Z,19.50
2022-08-30T06:55:33.356Z,19.60
2022-08-30T06:58:01.226Z,19.80
2022-08-30T07:00:28.873Z,20.00
2022-08-30T07:02:55.659Z,20.20
2022-08-30T07:05:23.567Z,20.40
2022-08-30T07:07:53.226Z,20.60
2022-08-30T07:10:21.365Z,20.80
2022-08-30T07:12:48.800Z,21.10
2022-08-30T07:15:16.077Z,21.30
2022-08-30T07:18:01.347Z,21.60
2022-08-30T07:20:28.144Z,21.90
2022-08-30T07:23:07.855Z,22.20
2022-08-30T07:25:36.836Z,22.50
2022-08-30T07:28:05.437Z,22.80
2022-08-30T07:30:32.932Z,23.10
2022-08-30T07:32:59.650Z,23.40
2022-08-30T07:35:26.519Z,23.60
2022-08-30T07:37:53.254Z,23.80
2022-08-30T07:40:20.552Z,23.90
2022-08-30T07:42:47.273Z,24.10
2022-08-30T07:45:14.315Z,24.20
2022-08-30T07:47:41.450Z,24.40
2022-08-30T07:50:08.774Z,24.50
2022-08-30T07:52:35.470Z,24.70
2022-08-30T07:55:02.330Z,24.90
2022-08-30T07:57:31.501Z,25.10
2022-08-30T07:59:58.175Z,25.30
2022-08-30T08:02:25.114Z,25.50
2022-08-30T08:04:51.937Z,25.80
2022-08-30T08:07:19.044Z,26.00
2022-08-30T08:09:45.768Z,26.30
2022-08-30T08:12:12.609Z,26.60
2022-08-30T08:14:40.690Z,26.90
2022-08-30T08:17:08.126Z,27.20
2022-08-30T08:19:34.842Z,27.40
2022-08-30T08:22:20.157Z,27.70
2022-08-30T08:24:47.708Z,28.00
2022-08-30T08:27:14.371Z,28.40
2022-08-30T08:29:41.228Z,28.60
2022-08-30T08:32:07.953Z,28.80
2022-08-30T08:34:35.690Z,29.10
2022-08-30T08:37:02.487Z,29.20
2022-08-30T08:39:29.149Z,29.40
2022-08-30T08:42:07.850Z,29.50
2022-08-30T08:45:17.362Z,29.60
2022-08-30T08:48:04.332Z,29.70
2022-08-30T08:50:31.865Z,29.70
2022-08-30T08:53:44.431Z,29.80
2022-08-30T08:56:12.591Z,29.80
2022-08-30T08:58:43.964Z,29.90
2022-08-30T09:01:13.131Z,30.00
2022-08-30T09:03:40.164Z,30.00
2022-08-30T09:06:30.615Z,30.10
2022-08-30T09:08:57.262Z,30.10
2022-08-30T09:11:27.726Z,30.10
2022-08-30T09:13:55.017Z,30.30
2022-08-30T09:16:45.302Z,30.20
2022-08-30T09:19:12.596Z,30.20
2022-08-30T09:21:39.283Z,30.20
2022-08-30T09:24:08.599Z,30.20
2022-08-30T09:26:37.612Z,30.20
2022-08-30T09:29:05.891Z,30.30
2022-08-30T09:31:46.689Z,30.30
2022-08-30T09:34:18.749Z,30.30
2022-08-30T09:36:55.918Z,30.30
2022-08-30T09:39:41.268Z,30.40
2022-08-30T09:42:18.876Z,30.30
2022-08-30T09:44:45.625Z,30.40
2022-08-30T09:47:31.531Z,30.40
2022-08-30T09:50:04.532Z,30.50
2022-08-30T09:52:42.479Z,30.70
2022-08-30T09:55:37.738Z,30.80
2022-08-30T09:58:50.317Z,30.90
2022-08-30T10:01:24.695Z,31.10
2022-08-30T10:04:13.532Z,31.20
2022-08-30T10:06:55.270Z,31.30
2022-08-30T10:09:38.545Z,31.40
2022-08-30T10:12:20.745Z,31.50
2022-08-30T10:14:52.013Z,31.70
2022-08-30T10:17:46.287Z,31.80
2022-08-30T10:20:21.876Z,32.00
2022-08-30T10:23:04.982Z,32.20
2022-08-30T10:25:38.554Z,32.30
2022-08-30T10:28:14.445Z,32.40
2022-08-30T10:30:49.928Z,32.50
2022-08-30T10:33:28.373Z,32.60
2022-08-30T10:36:01.967Z,32.70
2022-08-30T10:38:35.386Z,32.70
2022-08-30T10:41:48.680Z,32.60
2022-08-30T10:44:26.254Z,32.60
2022-08-30T10:47:27.013Z,32.50
2022-08-30T10:50:16.451Z,32.30
2022-08-30T10:53:00.615Z,32.10
2022-08-30T10:55:34.051Z,31.80
2022-08-30T10:58:01.852Z,31.60
2022-08-30T11:00:50.900Z,31.40
2022-08-30T11:03:46.666Z,31.10
2022-08-30T11:06:45.032Z,30.80
2022-08-30T11:09:41.267Z,30.60
2022-08-30T11:12:29.826Z,30.40
2022-08-30T11:14:57.388Z,30.20
2022-08-30T11:17:44.040Z,30.00
2022-08-30T11:20:46.899Z,29.80
2022-08-30T11:23:19.379Z,29.70
2022-08-30T11:26:17.003Z,29.50
2022-08-30T11:28:47.219Z,29.40
2022-08-30T11:31:23.532Z,29.20
2022-08-30T11:33:51.824Z,29.10
2022-08-30T11:36:37.840Z,29.00
2022-08-30T11:39:50.272Z,28.90
2022-08-30T11:42:29.356Z,28.80
2022-08-30T11:45:25.361Z,28.70
2022-08-30T11:48:01.267Z,28.60
2022-08-30T11:50:56.018Z,28.50
2022-08-30T11:53:33.035Z,28.40
2022-08-30T11:56:18.284Z,28.30
2022-08-30T11:58:57.955Z,28.20
2022-08-30T12:01:50.612Z,28.20
2022-08-30T12:04:17.149Z,28.10
2022-08-30T12:07:05.440Z,28.10
2022-08-30T12:09:35.110Z,28.00
2022-08-30T12:12:10.792Z,28.00
2022-08-30T12:14:51.541Z,27.90
2022-08-30T12:17:43.030Z,27.90
2022-08-30T12:20:29.036Z,27.80
2022-08-30T12:22:56.625Z,27.80
2022-08-30T12:28:28.526Z,27.80
2022-08-30T12:30:55.291Z,27.80
2022-08-30T12:33:40.184Z,27.80
2022-08-30T12:36:13.256Z,27.70
2022-08-30T12:38:40.810Z,27.60
2022-08-30T12:41:07.939Z,27.60
2022-08-30T12:43:47.831Z,27.70
2022-08-30T12:46:19.001Z,27.50
2022-08-30T12:48:48.122Z,27.50
2022-08-30T12:51:39.137Z,27.50
2022-08-30T12:54:16.264Z,27.40
2022-08-30T12:56:56.050Z,27.40
2022-08-30T12:59:59.474Z,27.40
2022-08-30T13:02:47.052Z,27.40
2022-08-30T13:05:45.567Z,27.30
2022-08-30T13:08:36.744Z,27.30
2022-08-30T13:11:10.650Z,27.40
2022-08-30T13:13:53.094Z,27.30
2022-08-30T13:16:22.847Z,27.30
2022-08-30T13:19:14.587Z,27.30
2022-08-30T13:21:53.278Z,27.30
2022-08-30T13:24:24.820Z,27.30
2022-08-30T13:26:54.280Z,27.40
2022-08-30T13:29:25.296Z,27.30
2022-08-30T13:31:52.460Z,27.30
2022-08-30T13:34:22.230Z,27.40
2022-08-30T13:36:54.858Z,27.30
2022-08-30T13:39:21.908Z,27.30
2022-08-30T13:41:49.429Z,27.30
2022-08-30T13:44:16.405Z,27.40
2022-08-30T13:46:53.310Z,27.40
2022-08-30T13:52:22.484Z,27.40
2022-08-30T13:54:51.365Z,27.30
2022-08-30T14:00:12.579Z,27.30
2022-08-30T14:02:46.466Z,27.30
2022-08-30T14:05:37.479Z,27.30
2022-08-30T14:08:01.892Z,27.20
2022-08-30T14:10:31.215Z,27.20
2022-08-30T14:13:07.791Z,27.20
2022-08-30T14:15:38.939Z,27.20
2022-08-30T14:18:07.420Z,27.30
2022-08-30T14:20:35.407Z,27.30
2022-08-30T14:23:07.577Z,27.30
2022-08-30T14:25:37.539Z,27.40
2022-08-30T14:28:04.467Z,27.40
2022-08-30T14:30:31.769Z,27.50
2022-08-30T14:33:00.248Z,27.50
2022-08-30T14:35:26.893Z,27.50
2022-08-30T14:37:54.366Z,27.50
2022-08-30T14:40:21.648Z,27.50
2022-08-30T14:42:48.489Z,27.40
2022-08-30T14:45:15.433Z,27.40
2022-08-30T14:47:42.155Z,27.40
2022-08-30T14:50:09.042Z,27.40
2022-08-30T14:52:36.219Z,27.40
2022-08-30T14:55:08.509Z,27.50
2022-08-30T14:57:37.449Z,27.50
2022-08-30T15:00:09.568Z,27.50
2022-08-30T15:02:36.295Z,27.50
2022-08-30T15:05:03.354Z,27.70
2022-08-30T15:07:33.877Z,27.60
2022-08-30T15:10:00.537Z,27.60
2022-08-30T15:12:28.398Z,27.70
2022-08-30T15:14:55.900Z,27.60
2022-08-30T15:17:22.595Z,27.60
2022-08-30T15:19:49.412Z,27.60
2022-08-30T15:22:16.781Z,27.60
2022-08-30T15:24:44.125Z,27.50
2022-08-30T15:27:15.814Z,27.50
2022-08-30T15:29:42.545Z,27.50
2022-08-30T15:32:09.181Z,27.40
2022-08-30T15:34:36.097Z,27.40
2022-08-30T15:37:03.842Z,27.40
2022-08-30T15:39:31.267Z,27.30
2022-08-30T15:42:01.276Z,27.30
2022-08-30T15:44:31.931Z,27.30
2022-08-30T15:46:59.090Z,27.30
2022-08-30T15:49:25.842Z,27.30
2022-08-30T15:51:54.010Z,27.30
2022-08-30T15:54:23.361Z,27.30
2022-08-30T15:56:52.108Z,27.30
2022-08-30T15:59:19.244Z,27.30
2022-08-30T16:01:47.587Z,27.30
2022-08-30T16:04:17.089Z,27.20
2022-08-30T16:06:46.439Z,27.20
2022-08-30T16:09:13.715Z,27.20
2022-08-30T16:11:40.502Z,27.20
2022-08-30T16:14:08.416Z,27.20
2022-08-30T16:16:37.600Z,27.10
2022-08-30T16:19:05.186Z,27.10
2022-08-30T16:21:36.588Z,27.00
2022-08-30T16:24:05.160Z,27.00
2022-08-30T16:26:33.694Z,26.90
2022-08-30T16:29:00.933Z,26.90
2022-08-30T16:31:29.890Z,26.90
2022-08-30T16:33:57.377Z,26.90
2022-08-30T16:36:32.128Z,26.80
2022-08-30T16:38:59.593Z,26.80
2022-08-30T16:41:26.493Z,26.90
2022-08-30T16:43:54.253Z,26.60
2022-08-30T16:46:27.720Z,26.60
2022-08-30T16:48:57.256Z,26.60
2022-08-30T16:51:25.700Z,26.60
2022-08-30T16:53:55.792Z,26.50
2022-08-30T16:56:25.094Z,26.50
2022-08-30T16:59:00.704Z,26.50
2022-08-30T17:01:30.828Z,26.40
2022-08-30T17:03:58.008Z,26.40
2022-08-30T17:06:24.907Z,26.40
2022-08-30T17:08:52.599Z,26.30
2022-08-30T17:11:23.718Z,26.30
2022-08-30T17:13:50.871Z,26.20
2022-08-30T17:16:18.992Z,26.20
2022-08-30T17:18:50.079Z,26.20
2022-08-30T17:21:17.100Z,26.10
2022-08-30T17:23:44.882Z,26.10
2022-08-30T17:26:11.736Z,26.10
2022-08-30T17:28:40.832Z,26.00
2022-08-30T17:31:08.633Z,26.00
2022-08-30T17:33:38.951Z,25.90
2022-08-30T17:36:09.417Z,25.90
2022-08-30T17:38:36.072Z,25.90
2022-08-30T17:41:09.193Z,25.80
2022-08-30T17:43:37.376Z,25.80
2022-08-30T17:46:10.649Z,25.80
2022-08-30T17:48:39.023Z,25.80
2022-08-30T17:51:07.004Z,25.70
2022-08-30T17:53:34.715Z,25.60
2022-08-30T17:56:02.764Z,25.60
2022-08-30T17:58:29.572Z,25.60
2022-08-30T18:01:13.342Z,25.50
2022-08-30T18:03:41.907Z,25.50
2022-08-30T18:06:12.884Z,25.50
2022-08-30T18:08:39.763Z,25.40
2022-08-30T18:11:06.951Z,25.40
2022-08-30T18:13:33.675Z,25.30
2022-08-30T18:16:03.044Z,25.30
2022-08-30T18:18:31.087Z,25.30
2022-08-30T18:20:59.054Z,25.20
2022-08-30T18:23:27.178Z,25.20
2022-08-30T18:26:01.018Z,25.20
2022-08-30T18:28:29.466Z,25.10
2022-08-30T18:30:56.883Z,25.10
2022-08-30T18:33:27.404Z,25.00
2022-08-30T18:35:55.728Z,25.00
2022-08-30T18:38:23.968Z,25.00
2022-08-30T18:40:52.600Z,24.90
2022-08-30T18:43:24.549Z,24.90
2022-08-30T18:45:57.049Z,24.90
2022-08-30T18:48:23.797Z,24.80
2022-08-30T18:50:54.039Z,24.80
2022-08-30T18:53:28.509Z,24.80
2022-08-30T18:55:56.986Z,24.70
2022-08-30T18:58:23.731Z,24.70
2022-08-30T19:00:50.998Z,24.70
2022-08-30T19:03:18.940Z,24.70
2022-08-30T19:05:46.019Z,24.70
2022-08-30T19:08:13.924Z,24.60
2022-08-30T19:10:41.222Z,24.60
2022-08-30T19:13:08.261Z,24.50
2022-08-30T19:15:35.545Z,24.50
2022-08-30T19:18:12.859Z,24.50
2022-08-30T19:20:44.205Z,24.50
2022-08-30T19:23:11.002Z,24.40
2022-08-30T19:25:40.100Z,24.30
2022-08-30T19:28:09.014Z,24.30
2022-08-30T19:30:37.145Z,24.20
2022-08-30T19:33:05.713Z,24.20
2022-08-30T19:35:33.161Z,24.20
2022-08-30T19:38:00.921Z,24.10
2022-08-30T19:40:29.226Z,24.00
2022-08-30T19:42:56.686Z,24.00
2022-08-30T19:45:24.546Z,23.90
2022-08-30T19:47:53.083Z,23.90
2022-08-30T19:50:21.210Z,23.80
2022-08-30T19:55:36.993Z,23.70
2022-08-30T19:58:04.466Z,23.70
2022-08-30T20:00:31.662Z,23.60
2022-08-30T20:02:59.899Z,23.60
2022-08-30T20:05:28.284Z,23.60
2022-08-30T20:07:54.957Z,23.50
2022-08-30T20:10:26.003Z,23.50
2022-08-30T20:12:52.872Z,23.40
2022-08-30T20:15:19.870Z,23.40
2022-08-30T20:18:03.451Z,23.40
2022-08-30T20:20:33.509Z,23.30
2022-08-30T20:23:03.079Z,23.30
2022-08-30T20:25:30.650Z,23.20
2022-08-30T20:27:57.330Z,23.20
2022-08-30T20:30:23.999Z,23.20
2022-08-30T20:32:52.469Z,23.10
2022-08-30T20:35:19.662Z,23.00
2022-08-30T20:37:46.760Z,23.00
2022-08-30T20:40:15.985Z,23.00
2022-08-30T20:42:45.274Z,22.90
2022-08-30T20:45:15.405Z,22.90
2022-08-30T20:47:43.186Z,22.80
2022-08-30T20:50:13.621Z,22.80
2022-08-30T20:52:42.749Z,22.70
2022-08-30T20:55:10.969Z,22.80
2022-08-30T20:57:38.413Z,22.70
2022-08-30T21:00:09.603Z,22.60
2022-08-30T21:02:36.870Z,22.60
2022-08-30T21:05:11.001Z,22.60
2022-08-30T21:07:37.634Z,22.50
2022-08-30T21:10:05.045Z,22.50
2022-08-30T21:12:32.405Z,22.40
2022-08-30T21:14:59.184Z,22.40
2022-08-30T21:17:27.168Z,22.40
2022-08-30T21:19:55.171Z,22.30
2022-08-30T21:22:22.400Z,22.30
2022-08-30T21:24:49.082Z,22.20
2022-08-30T21:27:15.805Z,22.20
2022-08-30T21:29:42.494Z,22.20
2022-08-30T21:32:09.699Z,22.20
2022-08-30T21:34:55.544Z,22.20
2022-08-30T21:37:22.583Z,22.10
2022-08-30T21:39:49.388Z,22.00
2022-08-30T21:42:16.565Z,22.00
2022-08-30T21:44:43.313Z,21.90
2022-08-30T21:47:10.507Z,21.90
2022-08-30T21:49:37.195Z,21.90
2022-08-30T21:52:04.015Z,21.80
2022-08-30T21:54:31.507Z,21.80
2022-08-30T21:57:00.677Z,21.80
2022-08-30T21:59:28.552Z,21.70
2022-08-30T22:01:56.541Z,21.70
2022-08-30T22:04:26.414Z,21.60
2022-08-30T22:06:53.672Z,21.60
2022-08-30T22:09:24.197Z,21.60
2022-08-30T22:11:51.302Z,21.60
2022-08-30T22:14:19.479Z,21.50
2022-08-30T22:16:46.474Z,21.50
2022-08-30T22:19:13.277Z,21.50
2022-08-30T22:21:42.003Z,21.50
2022-08-30T22:24:09.749Z,21.40
2022-08-30T22:26:36.953Z,21.40
2022-08-30T22:29:05.157Z,21.40
2022-08-30T22:31:32.044Z,21.30
2022-08-30T22:33:59.510Z,21.30
2022-08-30T22:36:32.441Z,21.30
2022-08-30T22:39:01.365Z,21.30
2022-08-30T22:41:31.159Z,21.20
2022-08-30T22:43:58.582Z,21.20
2022-08-30T22:46:33.825Z,21.20
2022-08-30T22:49:06.062Z,21.20
2022-08-30T22:51:33.648Z,21.20
2022-08-30T22:54:01.416Z,21.20
2022-08-30T22:56:28.578Z,21.20
2022-08-30T22:58:55.807Z,21.20
2022-08-30T23:01:34.594Z,21.20
2022-08-30T23:04:01.749Z,21.20
2022-08-30T23:06:29.306Z,21.20
2022-08-30T23:08:56.280Z,21.10
2022-08-30T23:11:24.366Z,21.20
2022-08-30T23:13:52.142Z,21.10
2022-08-30T23:16:19.312Z,21.10
2022-08-30T23:18:46.272Z,21.10
2022-08-30T23:21:19.778Z,21.10
2022-08-30T23:24:05.513Z,21.10
2022-08-30T23:26:51.091Z,21.00
2022-08-30T23:29:36.503Z,21.00
2022-08-30T23:32:22.155Z,21.00
2022-08-30T23:35:07.791Z,21.00
2022-08-30T23:37:53.386Z,20.90
2022-08-30T23:40:40.937Z,20.90
2022-08-30T23:43:27.111Z,20.90
2022-08-30T23:46:19.257Z,20.80
2022-08-30T23:49:05.940Z,20.80
2022-08-30T23:51:52.261Z,20.70
2022-08-30T23:54:37.833Z,20.70
2022-08-30T23:57:23.645Z,20.60
